Hlavní strana
METAR-TAF:

METAR-TAF

Letiště :

Kristiansund, Norsko

zeměpisná šířka: 63-07N, zeměpisná délka: 007-50E, výška: 6 m

Aktuální stav počasí

Zpráva byla vytvořena před 31 minutami, v 05:50 UTC
vítr z různých směrů 2 kt
Teplota 7°C
Vlhkost vzduchu 93%
Tlak 1022 hPa
Viditelnost 10 km a více
mrholení

METAR: ENKB 210550Z AUTO VRB02KT 9999 DZ SCT030/// BKN039/// OVC055/// 07/06 Q1022 RMK WIND 745FT 20009KT

Čas: 08:21 (06:21 UTC)

Předpověď počasí

Zpráva byla vytvořena před 16 hodinami a 28 minutami, v 13:53 UTC
Předpověď platná od 20 v 13 UTC do 20 v 19 UTC
Jihojihozápadní vítr 10 kt
Viditelnost 10 km a více
Žádná oblačnost pod 1500 m, nevyskytují se cumulonimby.
Změna
od 20 v 14 UTC do 20 v 16 UTC
Západní vítr 15 kt s nárazy do 25 kt

TAF: ENKB 201353Z 2013/2019 20010KT CAVOK BECMG 2014/2016 26015G25KT

Stav a předpovědi počasí z více než 4 000 letišť (zprávy METAR a TAF).

Červené a žluté tečky na mapě představují dostupné meteorologické stanice.

Když kurzor umístíte na tečku, zobrazí se název stanice.

Pak kliknutím zobrazíte stav a předpověď počasí.

Chcete-li změnit mapu, kliknutím na zelené tlačítko se znaménkem +mapu přiblížíte, kliknutím na zelené tlačítko se znaménkem – mapu oddálíte a kliknutím na zelené šipky přejdete na sousední mapy.


METAR-TAF: